Terminal Aerodrome Forecast
Issued by NWS Boise, ID

Home | Current Version | Previous Version | Text Only | Print | Product List | Glossary On
Versions: 1 2 3 4 5 6 7 8 9 10 11 12 13 14
000
FTUS45 KBOI 230523
TAFBNO
TAF
KBNO 230523Z 2306/2406 VRB05KT P6SM SCT100 BKN200
     FM231800 20005KT P6SM OVC050
     FM232000 22012G20KT P6SM OVC060
     FM240000 22011KT P6SM OVC050
     FM240300 23013KT P6SM -RA OVC050=

USA.gov is the U.S. government's official web portal to all federal, state and local government web resources and services.